PWSweather.com
Personal Weather Stations
Station Observations
SKYDIVEKS
Skydive Kansas, Osage City, KS 66523

Skydive KansasOsage City, KS 66523

Lat: 38.636, Lon: -95.803

Elevation: 1080

Station Type: La Crosse

http://www.skydivekansas.com

Latest ConditionsUpdated 5:45:00 PM CST Saturday, Dec 3, 2016
Currently Today's Max Today's Min Today's Average
Temperature 46.6°F8.1°C 49.8°F9.9°C 35.2°F1.8°C 41.3°F5.2°C
Dew Point 31.6°F-0.2°C 34.7°F1.5°C 22.7°F-5.2°C 27.8°F-2.3°C
Winds Calm Calm 8.7 mph E14.0 kmh E - 1.9 mph 3.1 kmh
Wind Gusts -- 10.5 mph16.9 kmh - -
Humidity 56% 63% 55% 58%
Pressure 29.07 in984.4 mb 29.31 in992.6 mb 29.07 in984.4 mb -
Hour Temp Dew Point Humidity Winds Wind Gusts Pressure Precip Precip Rate Daily Precip Total
05:45 PM 46.6°F8.1°C 31.6°F-0.2°C 56% Calm Calm -- 29.07 in984.4 mb 0.00 in0.0 mm 0.00 in0.0 mm 0.00 in0.0 mm
05:30 PM 47.1°F8.4°C 32.1°F0.1°C 56% Calm Calm -- 29.07 in984.4 mb 0.00 in0.0 mm 0.00 in0.0 mm 0.00 in0.0 mm
05:15 PM 47.5°F8.6°C 32.5°F0.3°C 56% Calm Calm -- 29.07 in984.4 mb 0.00 in0.0 mm 0.00 in0.0 mm 0.00 in0.0 mm
05:00 PM 47.8°F8.8°C 32.4°F0.2°C 55% Calm Calm -- 29.07 in984.4 mb 0.00 in0.0 mm 0.00 in0.0 mm 0.00 in0.0 mm
04:45 PM 48.2°F9.0°C 32.7°F0.4°C 55% Calm Calm -- 29.08 in984.8 mb 0.00 in0.0 mm 0.00 in0.0 mm 0.00 in0.0 mm
04:30 PM 48.7°F9.3°C 33.2°F0.7°C 55% Calm Calm -- 29.08 in984.8 mb 0.00 in0.0 mm 0.00 in0.0 mm 0.00 in0.0 mm
04:15 PM 49.1°F9.5°C 34.0°F1.1°C 56% Calm Calm -- 29.08 in984.8 mb 0.00 in0.0 mm 0.00 in0.0 mm 0.00 in0.0 mm
04:00 PM 49.6°F9.8°C 34.5°F1.4°C 56% Calm Calm -- 29.08 in984.8 mb 0.00 in0.0 mm 0.00 in0.0 mm 0.00 in0.0 mm
03:45 PM 49.6°F9.8°C 34.5°F1.4°C 56% Calm Calm -- 29.09 in985.1 mb 0.00 in0.0 mm 0.00 in0.0 mm 0.00 in0.0 mm
03:30 PM 49.8°F9.9°C 34.7°F1.5°C 56% Calm Calm 2.5 mph4.0 kmh 29.09 in985.1 mb 0.00 in0.0 mm 0.00 in0.0 mm 0.00 in0.0 mm
03:15 PM 49.8°F9.9°C 34.7°F1.5°C 56% Calm Calm 3.4 mph5.5 kmh 29.09 in985.1 mb 0.00 in0.0 mm 0.00 in0.0 mm 0.00 in0.0 mm
03:00 PM 49.5°F9.7°C 34.4°F1.3°C 56% 3.8 mph ESE6.1 kmh ESE 4.0 mph6.4 kmh 29.09 in985.1 mb 0.00 in0.0 mm 0.00 in0.0 mm 0.00 in0.0 mm
02:45 PM 48.9°F9.4°C 33.9°F1.1°C 56% Calm Calm 3.6 mph5.8 kmh 29.09 in985.1 mb 0.00 in0.0 mm 0.00 in0.0 mm 0.00 in0.0 mm
02:30 PM 48.7°F9.3°C 33.7°F0.9°C 56% Calm Calm 3.8 mph6.1 kmh 29.10 in985.4 mb 0.00 in0.0 mm 0.00 in0.0 mm 0.00 in0.0 mm
02:15 PM 48.6°F9.2°C 34.0°F1.1°C 57% Calm Calm 2.5 mph4.0 kmh 29.10 in985.4 mb 0.00 in0.0 mm 0.00 in0.0 mm 0.00 in0.0 mm
02:00 PM 47.8°F8.8°C 33.3°F0.7°C 57% Calm Calm 3.8 mph6.1 kmh 29.11 in985.8 mb 0.00 in0.0 mm 0.00 in0.0 mm 0.00 in0.0 mm
01:45 PM 47.5°F8.6°C 32.5°F0.3°C 56% 1.8 mph SSE2.9 kmh SSE 5.4 mph8.7 kmh 29.12 in986.1 mb 0.00 in0.0 mm 0.00 in0.0 mm 0.00 in0.0 mm
01:30 PM 47.1°F8.4°C 32.1°F0.1°C 56% 5.6 mph SSE9.0 kmh SSE 6.9 mph11.1 kmh 29.12 in986.1 mb 0.00 in0.0 mm 0.00 in0.0 mm 0.00 in0.0 mm
01:15 PM 46.8°F8.2°C 31.8°F-0.1°C 56% 4.5 mph SE7.2 kmh SE 6.5 mph10.5 kmh 29.12 in986.1 mb 0.00 in0.0 mm 0.00 in0.0 mm 0.00 in0.0 mm
01:00 PM 46.8°F8.2°C 31.4°F-0.3°C 55% 2.9 mph ESE4.7 kmh ESE 6.3 mph10.1 kmh 29.13 in986.5 mb 0.00 in0.0 mm 0.00 in0.0 mm 0.00 in0.0 mm
12:45 PM 46.8°F8.2°C 31.4°F-0.3°C 55% 5.1 mph SE8.2 kmh SE 9.2 mph14.8 kmh 29.13 in986.5 mb 0.00 in0.0 mm 0.00 in0.0 mm 0.00 in0.0 mm
12:30 PM 46.6°F8.1°C 31.2°F-0.4°C 55% 3.6 mph ESE5.8 kmh ESE 9.8 mph15.8 kmh 29.14 in986.8 mb 0.00 in0.0 mm 0.00 in0.0 mm 0.00 in0.0 mm
12:15 PM 46.0°F7.8°C 30.7°F-0.7°C 55% 6.9 mph ESE11.1 kmh ESE 9.6 mph15.4 kmh 29.15 in987.1 mb 0.00 in0.0 mm 0.00 in0.0 mm 0.00 in0.0 mm
12:00 PM 45.5°F7.5°C 30.2°F-1.0°C 55% 6.5 mph E10.5 kmh E 9.2 mph14.8 kmh 29.16 in987.5 mb 0.00 in0.0 mm 0.00 in0.0 mm 0.00 in0.0 mm
11:45 AM 45.3°F7.4°C 30.0°F-1.1°C 55% 5.4 mph E8.7 kmh E 9.8 mph15.8 kmh 29.16 in987.5 mb 0.00 in0.0 mm 0.00 in0.0 mm 0.00 in0.0 mm
11:30 AM 45.0°F7.2°C 29.7°F-1.3°C 55% 2.9 mph E4.7 kmh E 8.9 mph14.3 kmh 29.17 in987.8 mb 0.00 in0.0 mm 0.00 in0.0 mm 0.00 in0.0 mm
11:15 AM 44.6°F7.0°C 29.4°F-1.4°C 55% 8.7 mph E14.0 kmh E 8.7 mph14.0 kmh 29.18 in988.1 mb 0.00 in0.0 mm 0.00 in0.0 mm 0.00 in0.0 mm
11:00 AM 44.4°F6.9°C 29.7°F-1.3°C 56% 6.0 mph E9.7 kmh E 8.5 mph13.7 kmh 29.18 in988.1 mb 0.00 in0.0 mm 0.00 in0.0 mm 0.00 in0.0 mm
10:45 AM 44.2°F6.8°C 29.5°F-1.4°C 56% 1.3 mph E2.1 kmh E 10.5 mph16.9 kmh 29.20 in988.8 mb 0.00 in0.0 mm 0.00 in0.0 mm 0.00 in0.0 mm
10:30 AM 43.5°F6.4°C 29.7°F-1.3°C 58% 5.4 mph E8.7 kmh E 9.8 mph15.8 kmh 29.20 in988.8 mb 0.00 in0.0 mm 0.00 in0.0 mm 0.00 in0.0 mm
10:15 AM 42.6°F5.9°C 28.8°F-1.8°C 58% 6.5 mph E10.5 kmh E 9.2 mph14.8 kmh 29.20 in988.8 mb 0.00 in0.0 mm 0.00 in0.0 mm 0.00 in0.0 mm
10:00 AM 41.7°F5.4°C 28.4°F-2.0°C 59% 4.7 mph E7.6 kmh E 7.6 mph12.2 kmh 29.21 in989.2 mb 0.00 in0.0 mm 0.00 in0.0 mm 0.00 in0.0 mm
09:45 AM 41.0°F5.0°C 28.2°F-2.1°C 60% 4.0 mph E6.4 kmh E 7.8 mph12.6 kmh 29.21 in989.2 mb 0.00 in0.0 mm 0.00 in0.0 mm 0.00 in0.0 mm
09:30 AM 40.6°F4.8°C 27.9°F-2.3°C 60% 3.8 mph E6.1 kmh E 7.4 mph11.9 kmh 29.21 in989.2 mb 0.00 in0.0 mm 0.00 in0.0 mm 0.00 in0.0 mm
09:15 AM 40.1°F4.5°C 27.7°F-2.4°C 61% 4.7 mph E7.6 kmh E 8.7 mph14.0 kmh 29.21 in989.2 mb 0.00 in0.0 mm 0.00 in0.0 mm 0.00 in0.0 mm
09:00 AM 39.6°F4.2°C 27.2°F-2.7°C 61% 5.8 mph E9.3 kmh E 7.8 mph12.6 kmh 29.21 in989.2 mb 0.00 in0.0 mm 0.00 in0.0 mm 0.00 in0.0 mm
08:45 AM 39.0°F3.9°C 27.0°F-2.8°C 62% 5.4 mph E8.7 kmh E 9.8 mph15.8 kmh 29.21 in989.2 mb 0.00 in0.0 mm 0.00 in0.0 mm 0.00 in0.0 mm
08:30 AM 38.5°F3.6°C 26.9°F-2.8°C 63% 5.1 mph ENE8.2 kmh ENE 6.5 mph10.5 kmh 29.22 in989.5 mb 0.00 in0.0 mm 0.00 in0.0 mm 0.00 in0.0 mm
08:15 AM 38.1°F3.4°C 26.6°F-3.0°C 63% 5.4 mph ENE8.7 kmh ENE 7.6 mph12.2 kmh 29.21 in989.2 mb 0.00 in0.0 mm 0.00 in0.0 mm 0.00 in0.0 mm
08:00 AM 37.8°F3.2°C 25.9°F-3.4°C 62% 4.9 mph NE7.9 kmh NE 5.8 mph9.3 kmh 29.22 in989.5 mb 0.00 in0.0 mm 0.00 in0.0 mm 0.00 in0.0 mm
07:45 AM 37.2°F2.9°C 25.4°F-3.7°C 62% 1.3 mph NE2.1 kmh NE 3.6 mph5.8 kmh 29.22 in989.5 mb 0.00 in0.0 mm 0.00 in0.0 mm 0.00 in0.0 mm
07:30 AM 37.2°F2.9°C 25.8°F-3.4°C 63% Calm Calm 4.7 mph7.6 kmh 29.22 in989.5 mb 0.00 in0.0 mm 0.00 in0.0 mm 0.00 in0.0 mm
07:15 AM 37.0°F2.8°C 25.6°F-3.6°C 63% Calm Calm 2.7 mph4.3 kmh 29.22 in989.5 mb 0.00 in0.0 mm 0.00 in0.0 mm 0.00 in0.0 mm
07:00 AM 36.7°F2.6°C 25.3°F-3.7°C 63% Calm Calm 2.7 mph4.3 kmh 29.22 in989.5 mb 0.00 in0.0 mm 0.00 in0.0 mm 0.00 in0.0 mm
06:45 AM 36.5°F2.5°C 25.1°F-3.8°C 63% Calm Calm -- 29.22 in989.5 mb 0.00 in0.0 mm 0.00 in0.0 mm 0.00 in0.0 mm
06:30 AM 36.3°F2.4°C 24.9°F-3.9°C 63% Calm Calm 3.4 mph5.5 kmh 29.22 in989.5 mb 0.00 in0.0 mm 0.00 in0.0 mm 0.00 in0.0 mm
06:15 AM 36.3°F2.4°C 24.5°F-4.2°C 62% 2.2 mph NE3.5 kmh NE 4.7 mph7.6 kmh 29.22 in989.5 mb 0.00 in0.0 mm 0.00 in0.0 mm 0.00 in0.0 mm
06:00 AM 36.0°F2.2°C 24.2°F-4.3°C 62% 1.8 mph NE2.9 kmh NE 4.9 mph7.9 kmh 29.22 in989.5 mb 0.00 in0.0 mm 0.00 in0.0 mm 0.00 in0.0 mm
05:45 AM 36.0°F2.2°C 24.2°F-4.3°C 62% 2.0 mph NNE3.2 kmh NNE 5.8 mph9.3 kmh 29.22 in989.5 mb 0.00 in0.0 mm 0.00 in0.0 mm 0.00 in0.0 mm
05:30 AM 36.1°F2.3°C 24.0°F-4.4°C 61% Calm Calm 2.0 mph3.2 kmh 29.23 in989.8 mb 0.00 in0.0 mm 0.00 in0.0 mm 0.00 in0.0 mm
05:15 AM 35.8°F2.1°C 23.7°F-4.6°C 61% Calm Calm 2.0 mph3.2 kmh 29.25 in990.5 mb 0.00 in0.0 mm 0.00 in0.0 mm 0.00 in0.0 mm
05:00 AM 35.6°F2.0°C 23.5°F-4.7°C 61% 1.8 mph NNE2.9 kmh NNE 2.2 mph3.5 kmh 29.25 in990.5 mb 0.00 in0.0 mm 0.00 in0.0 mm 0.00 in0.0 mm
04:45 AM 35.4°F1.9°C 23.4°F-4.8°C 61% Calm Calm 1.3 mph2.1 kmh 29.25 in990.5 mb 0.00 in0.0 mm 0.00 in0.0 mm 0.00 in0.0 mm
04:30 AM 35.4°F1.9°C 23.0°F-5.0°C 60% Calm Calm 1.8 mph2.9 kmh 29.26 in990.9 mb 0.00 in0.0 mm 0.00 in0.0 mm 0.00 in0.0 mm
04:15 AM 35.2°F1.8°C 22.8°F-5.1°C 60% Calm Calm 4.9 mph7.9 kmh 29.25 in990.5 mb 0.00 in0.0 mm 0.00 in0.0 mm 0.00 in0.0 mm
04:00 AM 35.6°F2.0°C 23.2°F-4.9°C 60% Calm Calm 4.9 mph7.9 kmh 29.25 in990.5 mb 0.00 in0.0 mm 0.00 in0.0 mm 0.00 in0.0 mm
03:45 AM 36.1°F2.3°C 23.7°F-4.6°C 60% 2.2 mph NNE3.5 kmh NNE 4.5 mph7.2 kmh 29.26 in990.9 mb 0.00 in0.0 mm 0.00 in0.0 mm 0.00 in0.0 mm
03:30 AM 36.1°F2.3°C 23.7°F-4.6°C 60% Calm Calm 1.1 mph1.8 kmh 29.27 in991.2 mb 0.00 in0.0 mm 0.00 in0.0 mm 0.00 in0.0 mm
03:15 AM 35.4°F1.9°C 23.4°F-4.8°C 61% Calm Calm 3.4 mph5.5 kmh 29.27 in991.2 mb 0.00 in0.0 mm 0.00 in0.0 mm 0.00 in0.0 mm
03:00 AM 35.8°F2.1°C 23.3°F-4.8°C 60% Calm Calm 6.0 mph9.7 kmh 29.27 in991.2 mb 0.00 in0.0 mm 0.00 in0.0 mm 0.00 in0.0 mm
02:45 AM 35.8°F2.1°C 23.3°F-4.8°C 60% Calm Calm 1.8 mph2.9 kmh 29.28 in991.5 mb 0.00 in0.0 mm 0.00 in0.0 mm 0.00 in0.0 mm
02:30 AM 36.0°F2.2°C 23.1°F-4.9°C 59% Calm Calm 4.5 mph7.2 kmh 29.29 in991.9 mb 0.00 in0.0 mm 0.00 in0.0 mm 0.00 in0.0 mm
02:15 AM 36.3°F2.4°C 23.0°F-5.0°C 58% Calm Calm 5.8 mph9.3 kmh 29.29 in991.9 mb 0.00 in0.0 mm 0.00 in0.0 mm 0.00 in0.0 mm
02:00 AM 36.5°F2.5°C 23.1°F-4.9°C 58% Calm Calm -- 29.30 in992.2 mb 0.00 in0.0 mm 0.00 in0.0 mm 0.00 in0.0 mm
01:45 AM 36.7°F2.6°C 23.3°F-4.8°C 58% Calm Calm 4.9 mph7.9 kmh 29.30 in992.2 mb 0.00 in0.0 mm 0.00 in0.0 mm 0.00 in0.0 mm
01:30 AM 36.7°F2.6°C 22.9°F-5.1°C 57% 2.2 mph NE3.5 kmh NE 3.6 mph5.8 kmh 29.30 in992.2 mb 0.00 in0.0 mm 0.00 in0.0 mm 0.00 in0.0 mm
01:15 AM 37.0°F2.8°C 23.6°F-4.7°C 58% Calm Calm 2.9 mph4.7 kmh 29.29 in991.9 mb 0.00 in0.0 mm 0.00 in0.0 mm 0.00 in0.0 mm
01:00 AM 37.0°F2.8°C 23.6°F-4.7°C 58% 1.8 mph NNE2.9 kmh NNE 2.7 mph4.3 kmh 29.30 in992.2 mb 0.00 in0.0 mm 0.00 in0.0 mm 0.00 in0.0 mm
12:45 AM 37.0°F2.8°C 23.6°F-4.7°C 58% Calm Calm 2.0 mph3.2 kmh 29.31 in992.6 mb 0.00 in0.0 mm 0.00 in0.0 mm 0.00 in0.0 mm
12:30 AM 36.7°F2.6°C 22.9°F-5.1°C 57% 1.6 mph NNE2.6 kmh NNE 4.3 mph6.9 kmh 29.30 in992.2 mb 0.00 in0.0 mm 0.00 in0.0 mm 0.00 in0.0 mm
12:15 AM 36.7°F2.6°C 23.3°F-4.8°C 58% Calm Calm -- 29.30 in992.2 mb 0.00 in0.0 mm 0.00 in0.0 mm 0.00 in0.0 mm
12:00 AM 36.5°F2.5°C 22.7°F-5.2°C 57% Calm Calm 3.8 mph6.1 kmh 29.31 in992.6 mb 0.00 in0.0 mm 0.00 in0.0 mm 0.00 in0.0 mm